SSEC Globe Logo

Space Science and Engineering Center

Surface Aviation Observations

KAIG 260715Z AUTO 33008KT 10SM SCT001 05/05 A2974 RMK AO2
     T00490049=
KAIG 260715Z AUTO 33008KT 10SM SCT001 05/05 A2974 RMK AO2
     T00490049=
KAIG 260655Z AUTO 32003KT M1/4SM FG OVC001 07/07 A2974 RMK
     AO2 T00710071=
KAIG 260655Z AUTO 32003KT M1/4SM FG OVC001 07/07 A2974 RMK
     AO2 T00710071=
KC29 260715Z AUTO 27006KT 10SM CLR 09/08 A2976 RMK AO1
     T00860079=
KC29 260715Z AUTO 27006KT 10SM CLR 09/08 A2976 RMK AO1
     T00860079=
KC29 260655Z AUTO 00000KT 10SM CLR 09/08 A2976 RMK AO1
     T00860079=
KC29 260655Z AUTO 00000KT 10SM CLR 09/08 A2976 RMK AO1
     T00860079=
KBCK 260715Z AUTO 31005KT 10SM CLR 10/M05 A2982 RMK AO2
     T01001050=
KBCK 260715Z AUTO 31005KT 10SM CLR 10/M05 A2982 RMK AO2
     T01001050=
KBCK 260655Z AUTO 31008KT 10SM CLR 11/M04 A2982 RMK AO2
     T01051036=
KBCK 260655Z AUTO 31008KT 10SM CLR 11/M04 A2982 RMK AO2
     T01051036=
KUBE 260715Z AUTO 32015G19KT 10SM CLR 07/M06 A2987 RMK AO2=
KUBE 260715Z AUTO 32015G19KT 10SM CLR 07/M06 A2987 RMK AO2=
KUBE 260655Z AUTO 31012KT 10SM CLR 07/M06 A2987 RMK AO2=
KUBE 260655Z AUTO 31012KT 10SM CLR 07/M06 A2987 RMK AO2=
KPVB 260715Z AUTO 31009KT 10SM CLR 07/07 A2980 RMK AO1
     T00680068=
KPVB 260715Z AUTO 31009KT 10SM CLR 07/07 A2980 RMK AO1
     T00680068=
KPVB 260655Z AUTO 30007KT 10SM CLR 07/07 A2980 RMK AO1
     T00650065=
KPVB 260655Z AUTO 30007KT 10SM CLR 07/07 A2980 RMK AO1
     T00650065=
KEZS 260715Z AUTO 00000KT 1/2SM FG OVC002 10/09 A2972 RMK
     AO2 T01010085=
KEZS 260715Z AUTO 00000KT 1/2SM FG OVC002 10/09 A2972 RMK
     AO2 T01010085=
KEZS 260655Z AUTO 27003KT 1/2SM FG OVC002 10/09 A2973 RMK
     AO2 T01020086=
KEZS 260655Z AUTO 27003KT 1/2SM FG OVC002 10/09 A2973 RMK
     AO2 T01020086=
KARV 260715Z AUTO 32008KT 10SM BKN090 11/M02 A2977 RMK AO2
     T01091025=
KARV 260715Z AUTO 32008KT 10SM BKN090 11/M02 A2977 RMK AO2
     T01091025=
KARV 260655Z AUTO 31007G14KT 10SM BKN090 11/M02 A2977 RMK
     AO2 T01101025=
KARV 260655Z AUTO 31007G14KT 10SM BKN090 11/M02 A2977 RMK
     AO2 T01101025=
KASX 260653Z AUTO 30005KT 10SM CLR 08/M04 A2983 RMK AO2
     SLP103 T00781044=
KASX 260653Z AUTO 30005KT 10SM CLR 08/M04 A2983 RMK AO2
     SLP103 T00781044=
KATW 260715Z AUTO 28008KT 1/2SM FG VV005 07/07 A2970 RMK
     AO2=
KATW 260655Z AUTO 27008KT 5SM BR SCT014 SCT100 08/08 A2971
     RMK AO2 P0001=
KATW 260655Z AUTO 27008KT 5SM BR SCT014 SCT100 08/08 A2971
     RMK AO2 P0001=
KAUW 260654Z AUTO 31006KT 10SM CLR 08/02 A2974 RMK AO2
     SLP079 T00780017=
KAUW 260654Z AUTO 31006KT 10SM CLR 08/02 A2974 RMK AO2
     SLP079 T00780017=
KBUU 260715Z AUTO 32005KT 10SM CLR 08/08 A2972 RMK AO2
     T00830081=
KBUU 260715Z AUTO 32005KT 10SM CLR 08/08 A2972 RMK AO2
     T00830081=
KBUU 260655Z AUTO 31007KT 10SM CLR 08/08 A2973 RMK AO2
     T00830081=
KBUU 260655Z AUTO 31007KT 10SM CLR 08/08 A2973 RMK AO2
     T00830081=
KCLI 260715Z AUTO 00000KT 1/4SM FG OVC002 09/09 A2972 RMK
     AO2 T00930090=
KCLI 260715Z AUTO 00000KT 1/4SM FG OVC002 09/09 A2972 RMK
     AO2 T00930090=
KCLI 260655Z AUTO 00000KT 1/4SM FG OVC002 09/09 A2973 RMK
     AO2 T00940090 401280067=
KCLI 260655Z AUTO 00000KT 1/4SM FG OVC002 09/09 A2973 RMK
     AO2 T00940090 401280067=
KCMY 260715Z AUTO 31010G17KT 10SM CLR 10/M02 A2983 RMK AO2
     T00961016=
KCMY 260715Z AUTO 31010G17KT 10SM CLR 10/M02 A2983 RMK AO2
     T00961016=
KCMY 260655Z AUTO 31009G17KT 10SM CLR 10/00 A2983 RMK AO2
     T00951004=
KCMY 260655Z AUTO 31009G17KT 10SM CLR 10/00 A2983 RMK AO2
     T00951004=
KCWA 260715Z AUTO 33008KT 10SM CLR 06/02 A2977 RMK AO2=
KCWA 260715Z AUTO 33008KT 10SM CLR 06/02 A2977 RMK AO2=
KCWA 260655Z AUTO 31009KT 10SM CLR 05/05 A2977 RMK AO2=
KCWA 260655Z AUTO 31009KT 10SM CLR 05/05 A2977 RMK AO2=
KDLL 260715Z AUTO 28006KT 10SM CLR 08/06 A2976 RMK AO2
     T00750064=
KDLL 260715Z AUTO 28006KT 10SM CLR 08/06 A2976 RMK AO2
     T00750064=
KDLL 260655Z AUTO 28005KT 10SM CLR 08/07 A2976 RMK AO2
     T00790069=
KDLL 260655Z AUTO 28005KT 10SM CLR 08/07 A2976 RMK AO2
     T00790069=
KEAU 260656Z AUTO 31008KT 10SM CLR 09/M06 A2985 RMK AO2
     SLP108 T00941056=
KEAU 260656Z AUTO 31008KT 10SM CLR 09/M06 A2985 RMK AO2
     SLP108 T00941056=
KEFT 260715Z AUTO 10SM CLR 08/07 A2977 RMK AO2 T00780070=
KEFT 260715Z AUTO 10SM CLR 08/07 A2977 RMK AO2 T00780070=
KEFT 260655Z AUTO 10SM CLR 08/07 A2977 RMK AO2 T00810074=
KEFT 260655Z AUTO 10SM CLR 08/07 A2977 RMK AO2 T00810074=
KEGV 260715Z AUTO 31008KT 10SM SCT090 08/M04 A2974 RMK AO2
     T00771040=
KEGV 260715Z AUTO 31008KT 10SM SCT090 08/M04 A2974 RMK AO2
     T00771040=
KEGV 260655Z AUTO 31007KT 10SM BKN090 07/M04 A2975 RMK AO2
     T00731036=
KEGV 260655Z AUTO 31007KT 10SM BKN090 07/M04 A2975 RMK AO2
     T00731036=
KENW 260653Z AUTO 35007KT 10SM FEW010 FEW110 10/09 A2971 RMK
     AO2 RAE09 SLP062 P0000 T01000089=
KENW 260653Z AUTO 35007KT 10SM FEW010 FEW110 10/09 A2971 RMK
     AO2 RAE09 SLP062 P0000 T01000089=
KETB 260715Z AUTO 30006KT 10SM CLR 08/08 A2971 RMK AO2=
KETB 260715Z AUTO 30006KT 10SM CLR 08/08 A2971 RMK AO2=
KETB 260655Z AUTO 30003KT 10SM CLR 08/08 A2972 RMK AO2
     P0002=
KETB 260655Z AUTO 30003KT 10SM CLR 08/08 A2972 RMK AO2
     P0002=
KFLD 260653Z AUTO 25003KT 5SM BR BKN016 08/08 A2973 RMK AO2
     SLP069 T00830078=
KFLD 260653Z AUTO 25003KT 5SM BR BKN016 08/08 A2973 RMK AO2
     SLP069 T00830078=
KFLD 260648Z AUTO 24003KT 2 1/2SM BR SCT016 08/08 A2973 RMK
     AO2=
KGRB 260653Z AUTO 28008KT 10SM FEW100 10/09 A2972 RMK AO2
     SLP066 T01000089=
KGRB 260653Z AUTO 28008KT 10SM FEW100 10/09 A2972 RMK AO2
     SLP066 T01000089=
KHYR 260653Z AUTO VRB05KT 10SM CLR 09/M05 A2985 RMK AO2
     SLP109 T00891050=
KHYR 260653Z AUTO VRB05KT 10SM CLR 09/M05 A2985 RMK AO2
     SLP109 T00891050=
KISW 260654Z AUTO 32008KT 10SM 07/02 A2976 RMK AO2 SLP083
     T00670022 TSNO $=
KISW 260654Z AUTO 32008KT 10SM 07/02 A2976 RMK AO2 SLP083
     T00670022 TSNO $=
KJVL 260715Z AUTO 29004KT 10SM CLR 09/09 A2976 RMK AO2=
KJVL 260715Z AUTO 29004KT 10SM CLR 09/09 A2976 RMK AO2=
KJVL 260655Z AUTO 28004KT 10SM CLR 09/09 A2975 RMK AO2=
KJVL 260655Z AUTO 28004KT 10SM CLR 09/09 A2975 RMK AO2=
KLNL 260715Z AUTO 31010G14KT 10SM BKN095 BKN110 09/M03 A2976
     RMK AO2 T00901035=
KLNL 260715Z AUTO 31010G14KT 10SM BKN095 BKN110 09/M03 A2976
     RMK AO2 T00901035=
KLNL 260655Z AUTO 31008KT 290V350 10SM BKN095 09/M03 A2976
     RMK AO2 T00891030=
KLNL 260655Z AUTO 31008KT 290V350 10SM BKN095 09/M03 A2976
     RMK AO2 T00891030=
KLNR 260715Z AUTO 25007KT 3/4SM BR VV001 07/06 A2979 RMK AO2
     T00720061=
KLNR 260656Z AUTO 25006KT 1/4SM FG VV001 08/07 A2979 RMK AO2
     SLP082 T00780072=
KLNR 260656Z AUTO 25006KT 1/4SM FG VV001 08/07 A2979 RMK AO2
     SLP082 T00780072=
KLNR 260654Z AUTO 25006KT 1/4SM FG VV001 08/07 A2979 RMK
     AO2=
KLNR 260650Z AUTO 25005KT 1SM BR VV001 08/07 A2979 RMK AO2=
KLNR 260648Z AUTO 25006KT 2SM BR FEW002 08/07 A2979 RMK AO2
     T00780072=
KLSE 260653Z AUTO 33016G30KT 10SM CLR 13/M03 A2984 RMK AO2
     PK WND 31034/0630 SLP103 T01281028=
KLSE 260653Z AUTO 33016G30KT 10SM CLR 13/M03 A2984 RMK AO2
     PK WND 31034/0630 SLP103 T01281028=
KLUM 260715Z AUTO 28008KT 10SM CLR 07/M07 A2988 RMK AO2
     T00701073=
KLUM 260715Z AUTO 28008KT 10SM CLR 07/M07 A2988 RMK AO2
     T00701073=
KLUM 260655Z AUTO 29009G15KT 10SM CLR 08/M08 A2988 RMK AO2
     T00781079=
KLUM 260655Z AUTO 29009G15KT 10SM CLR 08/M08 A2988 RMK AO2
     T00781079=
KMDZ 260715Z AUTO 31009KT 10SM CLR 07/M04 A2979 RMK AO2
     T00731036 TSNO=
KMDZ 260715Z AUTO 31009KT 10SM CLR 07/M04 A2979 RMK AO2
     T00731036 TSNO=
KMDZ 260655Z AUTO 31011G16KT 10SM CLR 08/M04 A2979 RMK AO2
     T00791036 TSNO=
KMDZ 260655Z AUTO 31011G16KT 10SM CLR 08/M04 A2979 RMK AO2
     T00791036 TSNO=
KMFI 260654Z AUTO 33015G25KT 10SM CLR 09/M01 A2977 RMK AO2
     SLP086 T00891011 TSNO $=
KMFI 260654Z AUTO 33015G25KT 10SM CLR 09/M01 A2977 RMK AO2
     SLP086 T00891011 TSNO $=
KMKE 260713Z 32006KT 10SM SCT013 BKN019 OVC150 11/08 A2971
     RMK AO2 T01060083=
KMKE 260652Z 35006KT 10SM SCT018 BKN120 OVC150 11/08 A2971
     RMK AO2 SLP062 T01060078=
KMKE 260652Z 35006KT 10SM SCT018 BKN120 OVC150 11/08 A2971
     RMK AO2 SLP062 T01060078=
KMRJ 260655Z AUTO 32003KT 10SM CLR 07/07 A2979 RMK AO2=
KMRJ 260655Z AUTO 32003KT 10SM CLR 07/07 A2979 RMK AO2=
KMSN 260653Z AUTO 00000KT 10SM CLR 09/08 A2975 RMK AO2
     SLP074 T00940078=
KMSN 260653Z AUTO 00000KT 10SM CLR 09/08 A2975 RMK AO2
     SLP074 T00940078=
KMTW 260656Z AUTO 27004KT 8SM FEW025 09/09 A2971 RMK AO2
     SLP083 T00940094=
KMTW 260656Z AUTO 27004KT 8SM FEW025 09/09 A2971 RMK AO2
     SLP083 T00940094=
KMWC 260715Z AUTO 30003KT 10SM CLR 09/07 A2973 RMK AO2=
KMWC 260715Z AUTO 30003KT 10SM CLR 09/07 A2973 RMK AO2=
KMWC 260655Z AUTO 32004KT 10SM SCT020 08/07 A2973 RMK AO2=
KMWC 260655Z AUTO 32004KT 10SM SCT020 08/07 A2973 RMK AO2=
KOEO 260715Z AUTO 30007KT 10SM CLR 08/M04 A2994 RMK AO2
     T00821043=
KOEO 260715Z AUTO 30007KT 10SM CLR 08/M04 A2994 RMK AO2
     T00821043=
KOEO 260655Z AUTO 29007KT 10SM CLR 09/M04 A2994 RMK AO2
     T00851044=
KOEO 260655Z AUTO 29007KT 10SM CLR 09/M04 A2994 RMK AO2
     T00851044=
KOSH 260653Z AUTO 28004KT 10SM CLR 09/08 A2973 RMK AO2
     SLP065 T00940083=
KOSH 260653Z AUTO 28004KT 10SM CLR 09/08 A2973 RMK AO2
     SLP065 T00940083=
KOVS 260716Z AUTO 00000KT 1 1/4SM BR CLR 07/06 A2982 RMK AO2
     VIS 3/4V2 1/2 T00670056=
KOVS 260712Z AUTO 00000KT 3/4SM BR CLR 07/05 A2982 RMK AO2
     T00670050=
KOVS 260700Z AUTO 00000KT 1SM BR CLR 06/05 A2982 RMK AO2
     T00610050=
KOVS 260653Z AUTO 00000KT 1 1/4SM BR CLR 07/06 A2982 RMK AO2
     VIS 3/4V3 SLP099 T00670056=
KOVS 260653Z AUTO 00000KT 1 1/4SM BR CLR 07/06 A2982 RMK AO2
     VIS 3/4V3 SLP099 T00670056=
KOVS 260650Z AUTO 00000KT 1 3/4SM BR CLR 07/06 A2982 RMK AO2
     VIS 3/4V4=
KPBH 260715Z AUTO 30005KT 10SM CLR 08/M05 A2980 RMK AO2
     T00811050=
KPBH 260715Z AUTO 30005KT 10SM CLR 08/M05 A2980 RMK AO2
     T00811050=
KPBH 260655Z AUTO 31005KT 10SM SCT100 08/M04 A2980 RMK AO2
     T00831045=
KPBH 260655Z AUTO 31005KT 10SM SCT100 08/M04 A2980 RMK AO2
     T00831045=
KPCZ 260715Z AUTO 00000KT 1 3/4SM BR OVC002 10/10 A2973 RMK
     AO2 T01020098=
KPCZ 260715Z AUTO 00000KT 1 3/4SM BR OVC002 10/10 A2973 RMK
     AO2 T01020098=
KPCZ 260655Z AUTO 27004KT 3SM BR OVC002 11/10 A2974 RMK AO2
     T01050100=
KPCZ 260655Z AUTO 27004KT 3SM BR OVC002 11/10 A2974 RMK AO2
     T01050100=
KPDC 260715Z AUTO 32007KT 10SM CLR 10/02 A2984 RMK AO2
     T01040021=
KPDC 260715Z AUTO 32007KT 10SM CLR 10/02 A2984 RMK AO2
     T01040021=
KPDC 260655Z AUTO 33006KT 10SM CLR 10/03 A2984 RMK AO2
     T01040025=
KPDC 260655Z AUTO 33006KT 10SM CLR 10/03 A2984 RMK AO2
     T01040025=
KRAC 260653Z AUTO 34009KT 10SM OVC110 09/08 A2972 RMK AO2
     RAE06 SLP065 P0000 T00940078=
KRAC 260653Z AUTO 34009KT 10SM OVC110 09/08 A2972 RMK AO2
     RAE06 SLP065 P0000 T00940078=
KRCX 260735Z AUTO 32010G14KT 10SM CLR 08/M05 A2985 RMK AO2
     T00821047=
KRCX 260715Z AUTO 32007G10KT 10SM CLR 09/M05 A2985 RMK AO2
     T00861046=
KRCX 260715Z AUTO 32007G10KT 10SM CLR 09/M05 A2985 RMK AO2
     T00861046=
KRCX 260655Z AUTO 32012G17KT 10SM CLR 09/M05 A2985 RMK AO2
     T00911046=
KRCX 260655Z AUTO 32012G17KT 10SM CLR 09/M05 A2985 RMK AO2
     T00911046=
KRHI 260653Z AUTO 31008G17KT 10SM CLR 10/M03 A2976 RMK AO2
     SLP078 T01001033=
KRHI 260653Z AUTO 31008G17KT 10SM CLR 10/M03 A2976 RMK AO2
     SLP078 T01001033=
KRNH 260715Z AUTO 30009KT 10SM CLR 07/M06 A2990 RMK AO2
     T00701059=
KRNH 260715Z AUTO 30009KT 10SM CLR 07/M06 A2990 RMK AO2
     T00701059=
KRNH 260655Z AUTO 31008KT 10SM CLR 08/M06 A2990 RMK AO2
     T00751060=
KRNH 260655Z AUTO 31008KT 10SM CLR 08/M06 A2990 RMK AO2
     T00751060=
KRPD 260715Z AUTO 29005KT 10SM CLR 09/M05 A2988 RMK AO2
     T00851051=
KRPD 260715Z AUTO 29005KT 10SM CLR 09/M05 A2988 RMK AO2
     T00851051=
KRPD 260655Z AUTO 29008KT 10SM CLR 08/M05 A2987 RMK AO2
     T00811047=
KRPD 260655Z AUTO 29008KT 10SM CLR 08/M05 A2987 RMK AO2
     T00811047=
KRRL 260715Z AUTO 34009G16KT 10SM BKN100 10/M03 A2976 RMK
     AO2 T00951031 TSNO=
KRRL 260715Z AUTO 34009G16KT 10SM BKN100 10/M03 A2976 RMK
     AO2 T00951031 TSNO=
KRRL 260655Z AUTO 33009KT 10SM CLR 09/M02 A2977 RMK AO2
     T00901022 TSNO=
KRRL 260655Z AUTO 33009KT 10SM CLR 09/M02 A2977 RMK AO2
     T00901022 TSNO=
KRYV 260715Z AUTO 28004KT 10SM SCT034 09/09 A2974 RMK AO2
     T00910091=
KRYV 260715Z AUTO 28004KT 10SM SCT034 09/09 A2974 RMK AO2
     T00910091=
KRYV 260655Z AUTO 28004KT 10SM CLR 09/09 A2974 RMK AO2
     T00930093=
KRYV 260655Z AUTO 28004KT 10SM CLR 09/09 A2974 RMK AO2
     T00930093=
KRZN 260715Z AUTO 31006KT 10SM CLR 05/M06 A2990 RMK AO2
     T00501056=
KRZN 260655Z AUTO 30005KT 10SM CLR 06/M06 A2990 RMK AO2
     T00551057=
KRZN 260655Z AUTO 30005KT 10SM CLR 06/M06 A2990 RMK AO2
     T00551057=
KSBM 260653Z AUTO 28006KT 9SM BKN014 09/09 A2971 RMK AO2
     SLP063 T00940089=
KSBM 260653Z AUTO 28006KT 9SM BKN014 09/09 A2971 RMK AO2
     SLP063 T00940089=
KSTE 260715Z AUTO 31005KT 7SM SCT002 07/07 A2975 RMK AO2
     T00670067=
KSTE 260715Z AUTO 31005KT 7SM SCT002 07/07 A2975 RMK AO2
     T00670067=
KSTE 260655Z AUTO 00000KT 1/2SM -DZ OVC002 02/02 A2976 RMK
     AO2 T00180018=
KSTE 260655Z AUTO 00000KT 1/2SM -DZ OVC002 02/02 A2976 RMK
     AO2 T00180018=
KSUE 260715Z AUTO 30003KT 1SM BR OVC002 09/09 A2970 RMK AO2
     RVRNO=
KSUE 260707Z AUTO 31003KT 2SM BR BKN002 09/09 A2970 RMK AO2=
KSUE 260702Z AUTO 31003KT 1SM BR BKN002 09/08 A2971 RMK AO2
     RVRNO=
KSUE 260656Z AUTO 30003KT 1/2SM FG BKN002 08/08 A2971 RMK
     AO2 SLP088 T00830083 RVRNO=
KSUE 260656Z AUTO 30003KT 1/2SM FG BKN002 08/08 A2971 RMK
     AO2 SLP088 T00830083 RVRNO=
KSUW 260715Z AUTO 31012G16KT 10SM CLR 07/M02 A2987 RMK AO2
     T00711020=
KSUW 260715Z AUTO 31012G16KT 10SM CLR 07/M02 A2987 RMK AO2
     T00711020=
KSUW 260655Z AUTO 31010KT 10SM CLR 07/M02 A2986 RMK AO2
     T00691025=
KSUW 260655Z AUTO 31010KT 10SM CLR 07/M02 A2986 RMK AO2
     T00691025=
KTKV 260715Z AUTO 30008KT 10SM BKN100 08/M04 A2978 RMK AO2
     T00801037=
KTKV 260715Z AUTO 30008KT 10SM BKN100 08/M04 A2978 RMK AO2
     T00801037=
KTKV 260655Z AUTO 30006KT 10SM OVC100 08/M03 A2978 RMK AO2
     T00771031=
KTKV 260655Z AUTO 30006KT 10SM OVC100 08/M03 A2978 RMK AO2
     T00771031=
KUES 260715Z AUTO 29005KT 10SM CLR 08/07 A2973 RMK AO2=
KUES 260715Z AUTO 29005KT 10SM CLR 08/07 A2973 RMK AO2=
KUES 260655Z AUTO 29006KT 10SM SCT120 08/08 A2974 RMK AO2=
KUES 260655Z AUTO 29006KT 10SM SCT120 08/08 A2974 RMK AO2=
KUNU 260715Z AUTO 25005KT 10SM CLR 09/08 A2974 RMK AO2
     T00850082 TSNO=
KUNU 260715Z AUTO 25005KT 10SM CLR 09/08 A2974 RMK AO2
     T00850082 TSNO=
KUNU 260655Z AUTO 25003KT 2SM BR SCT023 SCT030 08/08 A2975
     RMK AO2 T00780076 TSNO=
KUNU 260655Z AUTO 25003KT 2SM BR SCT023 SCT030 08/08 A2975
     RMK AO2 T00780076 TSNO=
KVOK 260656Z AUTO 29013KT 10SM CLR 07/07 A2978 RMK AO2
     SLP090 T00710071=
KVOK 260656Z AUTO 29013KT 10SM CLR 07/07 A2978 RMK AO2
     SLP090 T00710071=
METAR KVOK 260656Z AUTO 29013KT 10SM CLR 07/07 A2978 RMK AO2
     SLP090 T00710071=
METAR KVOK 260656Z AUTO 29013KT 10SM CLR 07/07 A2978 RMK AO2
     SLP090 T00710071=
KVOK 260656Z AUTO 29013KT 10SM CLR 07/07 A2978 RMK AO2
     SLP090 T00710071=
KY50 260720Z AUTO 26004KT 1/2SM FG OVC001 07/06 A2974 RMK
     AO2 $=
KY50 260656Z AUTO 00000KT 1/4SM FG OVC001 07/07 A2974 RMK
     AO2 SLP101 T00670067 $=
KY50 260656Z AUTO 00000KT 1/4SM FG OVC001 07/07 A2974 RMK
     AO2 SLP101 T00670067 $=
KY51 260715Z AUTO 32012KT 10SM CLR 09/04 A2983 RMK AO1
     T00850036=
KY51 260715Z AUTO 32012KT 10SM CLR 09/04 A2983 RMK AO1
     T00850036=
KY51 260655Z AUTO 32013KT 10SM CLR 08/05 A2982 RMK AO1
     T00820045=
KY51 260655Z AUTO 32013KT 10SM CLR 08/05 A2982 RMK AO1
     T00820045=
KY23 260715Z AUTO 31005KT 10SM CLR 08/M04 A2986 RMK AO2
     T00801040=
KY23 260715Z AUTO 31005KT 10SM CLR 08/M04 A2986 RMK AO2
     T00801040=
KY23 260655Z AUTO 31004KT 10SM CLR 08/M04 A2986 RMK AO2
     T00801042=
KY23 260655Z AUTO 31004KT 10SM CLR 08/M04 A2986 RMK AO2
     T00801042=
K3D2 260715Z AUTO 28004KT 7SM CLR 07/07 A2969 RMK AO2
     T00740072=
K3D2 260715Z AUTO 28004KT 7SM CLR 07/07 A2969 RMK AO2
     T00740072=
K3D2 260655Z AUTO 28003KT 10SM CLR 08/08 A2969 RMK AO2
     T00760075=
K3D2 260655Z AUTO 28003KT 10SM CLR 08/08 A2969 RMK AO2
     T00760075=
KD25 260715Z AUTO 31010KT 10SM BKN090 OVC110 08/M04 A2978
     RMK AO2 T00821044=
KD25 260715Z AUTO 31010KT 10SM BKN090 OVC110 08/M04 A2978
     RMK AO2 T00821044=
KD25 260655Z AUTO 30008KT 10SM OVC090 09/M04 A2978 RMK AO2
     T00881040=
KD25 260655Z AUTO 30008KT 10SM OVC090 09/M04 A2978 RMK AO2
     T00881040=
K82C 260715Z AUTO 30013G16KT 5SM HZ CLR 10/04 A2978 RMK AO2
     T01030038=
K82C 260715Z AUTO 30013G16KT 5SM HZ CLR 10/04 A2978 RMK AO2
     T01030038=
K82C 260655Z AUTO 30011KT 7SM CLR 11/05 A2977 RMK AO2
     T01060045=
K82C 260655Z AUTO 30011KT 7SM CLR 11/05 A2977 RMK AO2
     T01060045=
KOCQ 260715Z AUTO 29003KT 1/4SM OVC002 09/09 A2971 RMK AO1
     T00860086=
KOCQ 260715Z AUTO 29003KT 1/4SM OVC002 09/09 A2971 RMK AO1
     T00860086=
KOCQ 260655Z AUTO 28004KT 1/4SM OVC002 09/09 A2971 RMK AO1
     T00870087=
KOCQ 260655Z AUTO 28004KT 1/4SM OVC002 09/09 A2971 RMK AO1
     T00870087=
KC35 260715Z AUTO 30006KT 10SM CLR 07/07 A2977 RMK AO2
     T00740074=
KC35 260715Z AUTO 30006KT 10SM CLR 07/07 A2977 RMK AO2
     T00740074=
KC35 260655Z AUTO 30005KT 10SM CLR 07/07 A2977 RMK AO2
     T00710071=
KC35 260655Z AUTO 30005KT 10SM CLR 07/07 A2977 RMK AO2
     T00710071=
KOLG 260715Z AUTO 30006KT 10SM CLR 07/M05 A2985 RMK AO1=
KOLG 260715Z AUTO 30006KT 10SM CLR 07/M05 A2985 RMK AO1=
KOLG 260655Z AUTO 30006KT 10SM CLR 07/M05 A2985 RMK AO1=
KOLG 260655Z AUTO 30006KT 10SM CLR 07/M05 A2985 RMK AO1=
K2P2 260715Z AUTO 00000KT 2 1/2SM BR CLR 04/04 A2969 RMK AO2
     T00400040=
K2P2 260715Z AUTO 00000KT 2 1/2SM BR CLR 04/04 A2969 RMK AO2
     T00400040=
K2P2 260655Z AUTO 00000KT 1SM BR BKN002 04/04 A2969 RMK AO2
     T00390039=
K2P2 260655Z AUTO 00000KT 1SM BR BKN002 04/04 A2969 RMK AO2
     T00390039=
KDBQ 260653Z AUTO 33012KT 10SM CLR 08/04 A2981 RMK AO2
     SLP095 T00830039=
KDBQ 260653Z AUTO 33012KT 10SM CLR 08/04 A2981 RMK AO2
     SLP095 T00830039=
KRST 260654Z AUTO 32015KT 10SM CLR 08/M04 A2991 RMK AO2 PK
     WND 32028/0624 SLP133 T00781044=
KRST 260654Z AUTO 32015KT 10SM CLR 08/M04 A2991 RMK AO2 PK
     WND 32028/0624 SLP133 T00781044=
KMSP 260653Z 31013KT 10SM CLR 10/M06 A2994 RMK AO2 SLP138
     T01001061=
KMSP 260653Z 31013KT 10SM CLR 10/M06 A2994 RMK AO2 SLP138
     T01001061=
KRFD 260654Z 31006KT 10SM SCT039 OVC230 10/09 A2978 RMK AO2
     SLP083 T01000089=
KRFD 260654Z 31006KT 10SM SCT039 OVC230 10/09 A2978 RMK AO2
     SLP083 T01000089=
KORD 260651Z 36011KT 10SM FEW020 BKN055 OVC075 10/08 A2969
     RMK AO2 PK WND 35029/0605 RAE48 SLP054 P0003 T01000083=
KORD 260651Z 36011KT 10SM FEW020 BKN055 OVC075 10/08 A2969
     RMK AO2 PK WND 35029/0605 RAE48 SLP054 P0003 T01000083=